CheckWX is a tool to help pilots better visualize weather data.  It is not intended as a substitute for an official pre-flight weather briefing.

10:54:46 UTC

KMQE METAR
East Milton Airport
Massachusetts, USA
Current

1 hour ago

KMQE 230951Z AUTO 22011KT M01/M11 A3030 RMK AO1 SLP278 T10111106
Observed
Jan-23 @ 09:51 UTC
Wind
  • 220° at 11 KTS
Visibility
Temperature
-1°C / 30°F
Dewpoint
-11°C / 12°F
Humidity
47%
Altimeter
30.3" Hg
Pressure
1026.12 hPa
Previous

2 hours ago

KMQE 230851Z AUTO 24011KT M02/M10 A3031 RMK AO1 SLP283 T10171100 56012
Observed
Jan-23 @ 08:51 UTC
Wind
  • 240° at 11 KTS
Visibility
Temperature
-2°C / 28°F
Dewpoint
-10°C / 14°F
Humidity
55%
Altimeter
30.31" Hg
Pressure
1026.42 hPa
Previous

3 hours ago

KMQE 230751Z AUTO 23010KT M02/M09 A3032 RMK AO1 SLP286 T10221094
Observed
Jan-23 @ 07:51 UTC
Wind
  • 230° at 10 KTS
Visibility
Temperature
-2°C / 28°F
Dewpoint
-9°C / 16°F
Humidity
59%
Altimeter
30.32" Hg
Pressure
1026.72 hPa